createdAt,value
2016-04-08T00:00:00.521Z,67.19
2016-04-08T00:01:00.524Z,66.9
2016-04-08T00:02:00.526Z,66.61
2016-04-08T00:03:00.545Z,66.71
2016-04-08T00:04:00.516Z,66.61
2016-04-08T00:05:00.519Z,67.47
2016-04-08T00:06:00.490Z,67.66
2016-04-08T00:07:00.509Z,67.57
2016-04-08T00:08:00.496Z,68.13
2016-04-08T00:09:00.499Z,67.85
2016-04-08T00:10:00.486Z,68.04
2016-04-08T00:11:00.489Z,67.85
2016-04-08T00:12:00.476Z,67.28
2016-04-08T00:13:00.588Z,67.28
2016-04-08T00:14:00.313Z,67
2016-04-08T00:15:00.488Z,67.76
2016-04-08T00:16:00.474Z,68.13
2016-04-08T00:17:00.477Z,67.94
2016-04-08T00:18:00.480Z,68.04
2016-04-08T00:19:00.483Z,67.09
2016-04-08T00:20:03.688Z,66.8
2016-04-08T00:21:00.473Z,67
2016-04-08T00:22:00.491Z,67.47
2016-04-08T00:23:00.462Z,67.19
2016-04-08T00:24:00.465Z,66.9
2016-04-08T00:25:00.451Z,67.38
2016-04-08T00:26:00.454Z,67.38
2016-04-08T00:27:00.457Z,67.76
2016-04-08T00:28:00.459Z,67.57
2016-04-08T00:29:00.431Z,67.66
2016-04-08T00:30:00.433Z,67.85
2016-04-08T00:31:00.452Z,67.38
2016-04-08T00:32:00.424Z,67.38
2016-04-08T00:33:00.426Z,67
2016-04-08T00:34:00.461Z,67.19
2016-04-08T00:35:00.447Z,67.19
2016-04-08T00:36:00.466Z,67
2016-04-08T00:37:00.422Z,67.28
2016-04-08T00:38:00.424Z,67.47
2016-04-08T00:39:00.427Z,66.8
2016-04-08T00:40:00.430Z,66.71
2016-04-08T00:41:00.416Z,66.71
2016-04-08T00:42:00.419Z,66.14
2016-04-08T00:43:00.453Z,66.52
2016-04-08T00:44:00.393Z,65.95
2016-04-08T00:45:00.412Z,65.47
2016-04-08T00:46:00.429Z,65.76
2016-04-08T00:47:00.385Z,65.28
2016-04-08T00:48:00.404Z,64.9
2016-04-08T00:49:00.407Z,65.09
2016-04-08T00:50:00.379Z,64.81
2016-04-08T00:51:00.381Z,64.81
2016-04-08T00:52:00.384Z,64.81
2016-04-08T00:53:00.401Z,64.62
2016-04-08T00:54:00.389Z,65.28
2016-04-08T00:55:00.376Z,65.67
2016-04-08T00:56:00.378Z,65.47
2016-04-08T00:57:00.398Z,65.67
2016-04-08T00:58:00.384Z,65.57
2016-04-08T00:59:00.356Z,65.47
2016-04-08T01:00:00.374Z,65.67
2016-04-08T01:01:00.361Z,65.47
2016-04-08T01:02:00.364Z,65.28
2016-04-08T01:03:00.350Z,65.57
2016-04-08T01:04:00.369Z,65.95
2016-04-08T01:05:00.341Z,66.24
2016-04-08T01:06:00.343Z,66.14
2016-04-08T01:07:00.361Z,65.86
2016-04-08T01:08:00.333Z,65.76
2016-04-08T01:09:00.335Z,66.71
2016-04-08T01:10:00.339Z,66.61
2016-04-08T01:11:00.357Z,66.42
2016-04-08T01:12:00.328Z,66.8
2016-04-08T01:13:00.206Z,67.09
2016-04-08T01:14:00.333Z,66.9
2016-04-08T01:15:00.336Z,67
2016-04-08T01:16:00.338Z,67.28
2016-04-08T01:17:00.357Z,67.63
2016-04-08T01:18:00.313Z,67.53
2016-04-08T01:19:00.315Z,67.53
2016-04-08T01:20:00.303Z,67.63
2016-04-08T01:21:00.320Z,68.29
2016-04-08T01:22:00.308Z,68.01
2016-04-08T01:23:00.295Z,68.39
2016-04-08T01:24:00.298Z,68.67
2016-04-08T01:25:00.317Z,68.67
2016-04-08T01:26:00.287Z,69.05
2016-04-08T01:27:00.290Z,68.77
2016-04-08T01:28:00.464Z,68.58
2016-04-08T01:29:00.295Z,69.24
2016-04-08T01:30:00.298Z,69.34
2016-04-08T01:31:00.300Z,69.24
2016-04-08T01:32:00.288Z,68.86
2016-04-08T01:33:00.275Z,69.15
2016-04-08T01:34:00.278Z,69.24
2016-04-08T01:35:00.281Z,69.24
2016-04-08T01:36:00.268Z,69.34
2016-04-08T01:37:00.286Z,69.15
2016-04-08T01:38:00.258Z,69.62
2016-04-08T01:39:00.275Z,70.1
2016-04-08T01:40:00.263Z,69.81
2016-04-08T01:41:00.281Z,69.62
2016-04-08T01:42:00.252Z,69.81
2016-04-08T01:43:00.255Z,70.1
2016-04-08T01:44:00.257Z,69.81
2016-04-08T01:45:00.260Z,70.38
2016-04-08T01:46:00.248Z,70.19
2016-04-08T01:47:00.235Z,70.67
2016-04-08T01:48:00.254Z,70.57
2016-04-08T01:49:00.240Z,70.82
2016-04-08T01:50:00.259Z,70.38
2016-04-08T01:51:00.229Z,70.82
2016-04-08T01:52:00.217Z,70.82
2016-04-08T01:53:00.220Z,71.01
2016-04-08T01:54:00.222Z,70.82
2016-04-08T01:55:00.225Z,70.82
2016-04-08T01:56:00.227Z,70.92
2016-04-08T01:57:00.214Z,70.73
2016-04-08T01:58:00.217Z,70.63
2016-04-08T01:59:00.220Z,70.73
2016-04-08T02:00:00.192Z,70.73
2016-04-08T02:01:00.194Z,70.92
2016-04-08T02:02:00.197Z,70.63
2016-04-08T02:03:00.184Z,71.11
2016-04-08T02:04:00.218Z,70.92
2016-04-08T02:05:00.189Z,71.11
2016-04-08T02:06:00.192Z,70.92
2016-04-08T02:07:00.194Z,70.82
2016-04-08T02:08:00.180Z,70.92
2016-04-08T02:09:00.183Z,71.2
2016-04-08T02:10:00.170Z,71.39
2016-04-08T02:11:00.173Z,71.2
2016-04-08T02:12:00.175Z,71.48
2016-04-08T02:13:00.209Z,71.39
2016-04-08T02:14:00.164Z,71.48
2016-04-08T02:15:00.167Z,71.48
2016-04-08T02:16:00.139Z,71.48
2016-04-08T02:17:00.157Z,71.67
2016-04-08T02:18:00.144Z,71.48
2016-04-08T02:19:00.162Z,71.77
2016-04-08T02:20:00.149Z,71.48
2016-04-08T02:21:00.152Z,72.15
2016-04-08T02:22:00.154Z,72.06
2016-04-08T02:23:00.157Z,71.86
2016-04-08T02:24:00.160Z,72.06
2016-04-08T02:25:00.132Z,72.06
2016-04-08T02:26:00.119Z,72.06
2016-04-08T02:27:00.122Z,72.15
2016-04-08T02:28:00.124Z,72.91
2016-04-08T02:29:00.127Z,72.53
2016-04-08T02:30:00.114Z,72.81
2016-04-08T02:31:00.101Z,72.91
2016-04-08T02:32:00.119Z,73.29
2016-04-08T02:33:00.090Z,73.38
2016-04-08T02:34:00.093Z,72.72
2016-04-08T02:35:00.112Z,73
2016-04-08T02:36:00.115Z,72.81
2016-04-08T02:37:00.086Z,72.81
2016-04-08T02:38:00.104Z,73
2016-04-08T02:39:00.092Z,73.1
2016-04-08T02:40:00.078Z,73.38
2016-04-08T02:41:00.081Z,73.38
2016-04-08T02:42:00.067Z,73.76
2016-04-08T02:43:00.070Z,74.15
2016-04-08T02:44:00.073Z,74.43
2016-04-08T02:45:00.060Z,74.33
2016-04-08T02:46:00.063Z,74.71
2016-04-08T02:47:00.066Z,74.9
2016-04-08T02:48:00.053Z,74.96
2016-04-08T02:49:00.071Z,74.87
2016-04-08T02:50:00.058Z,75.05
2016-04-08T02:51:00.061Z,74.77
2016-04-08T02:52:00.049Z,75.34
2016-04-08T02:53:00.051Z,75.15
2016-04-08T02:54:00.054Z,74.96
2016-04-08T02:55:00.041Z,75.05
2016-04-08T02:56:00.043Z,75.05
2016-04-08T02:57:00.030Z,75.15
2016-04-08T02:58:00.032Z,74.96
2016-04-08T02:59:00.035Z,74.96
2016-04-08T03:00:00.023Z,74.77
2016-04-08T03:01:00.010Z,74.96
2016-04-08T03:02:00.013Z,74.87
2016-04-08T03:03:00.015Z,74.58
2016-04-08T03:04:00.034Z,74.2
2016-04-08T03:04:59.989Z,74.77
2016-04-08T03:06:00.007Z,75.15
2016-04-08T03:06:59.995Z,74.87
2016-04-08T03:07:59.981Z,75.05
2016-04-08T03:09:00.000Z,75.05
2016-04-08T03:10:00.017Z,75.15
2016-04-08T03:10:59.989Z,74.87
2016-04-08T03:11:59.977Z,74.96
2016-04-08T03:12:59.979Z,74.87
2016-04-08T03:13:59.983Z,74.68
2016-04-08T03:14:59.969Z,74.96
2016-04-08T03:15:59.956Z,75.15
2016-04-08T03:16:59.975Z,74.96
2016-04-08T03:17:59.946Z,75.62
2016-04-08T03:18:59.949Z,75.62
2016-04-08T03:19:59.952Z,75.81
2016-04-08T03:20:59.797Z,75.62
2016-04-08T03:21:59.941Z,75.53
2016-04-08T03:22:59.944Z,75.43
2016-04-08T03:23:59.931Z,75.72
2016-04-08T03:24:59.919Z,75.34
2016-04-08T03:25:59.936Z,75.62
2016-04-08T03:26:59.955Z,76.1
2016-04-08T03:27:59.911Z,75.91
2016-04-08T03:28:59.913Z,75.81
2016-04-08T03:29:59.916Z,76.29
2016-04-08T03:30:59.918Z,76.39
2016-04-08T03:31:59.906Z,76.39
2016-04-08T03:32:59.892Z,76.01
2016-04-08T03:33:59.895Z,75.81
2016-04-08T03:34:59.947Z,75.81
2016-04-08T03:35:59.962Z,75.62
2016-04-08T03:36:59.994Z,75.91
2016-04-08T03:38:00.040Z,75.91
2016-04-08T03:39:00.087Z,75.72
2016-04-08T03:40:00.096Z,76.01
2016-04-08T03:41:00.130Z,76.2
2016-04-08T03:42:00.132Z,76.1
2016-04-08T03:43:00.135Z,75.81
2016-04-08T03:44:00.153Z,75.91
2016-04-08T03:45:00.164Z,76.1
2016-04-08T03:46:00.157Z,75.72
2016-04-08T03:47:00.164Z,76.29
2016-04-08T03:48:00.156Z,76.1
2016-04-08T03:49:00.180Z,76.2
2016-04-08T03:50:00.170Z,76.29
2016-04-08T03:51:00.175Z,76.29
2016-04-08T03:52:00.165Z,76.1
2016-04-08T03:53:00.169Z,76.29
2016-04-08T03:54:00.158Z,77.05
2016-04-08T03:55:00.162Z,76.95
2016-04-08T03:56:00.149Z,76.29
2016-04-08T03:57:00.168Z,76.76
2016-04-08T03:58:00.156Z,76.48
2016-04-08T03:59:00.128Z,76.48
2016-04-08T04:00:00.147Z,76.29
2016-04-08T04:01:00.150Z,75.91
2016-04-08T04:02:00.138Z,76.29
2016-04-08T04:03:00.125Z,75.81
2016-04-08T04:04:00.113Z,75.62
2016-04-08T04:05:00.116Z,75.81
2016-04-08T04:06:00.133Z,74.96
2016-04-08T04:07:00.136Z,75.05
2016-04-08T04:08:00.107Z,75.53
2016-04-08T04:09:00.110Z,75.43
2016-04-08T04:10:00.113Z,76.01
2016-04-08T04:11:00.131Z,75.62
2016-04-08T04:12:00.118Z,75.53
2016-04-08T04:13:00.106Z,75.53
2016-04-08T04:14:00.092Z,75.53
2016-04-08T04:15:00.096Z,75.43
2016-04-08T04:16:00.098Z,75.34
2016-04-08T04:17:00.085Z,75.72
2016-04-08T04:18:00.088Z,75.81
2016-04-08T04:19:00.059Z,75.81
2016-04-08T04:20:00.078Z,75.81
2016-04-08T04:21:00.095Z,76.1
2016-04-08T04:22:00.051Z,75.91
2016-04-08T04:23:00.086Z,76.1
2016-04-08T04:24:00.089Z,75.91
2016-04-08T04:25:00.059Z,76.01
2016-04-08T04:26:00.094Z,75.62
2016-04-08T04:27:00.064Z,75.62
2016-04-08T04:28:00.036Z,75.81
2016-04-08T04:29:00.055Z,75.62
2016-04-08T04:30:00.042Z,75.34
2016-04-08T04:31:00.030Z,74.96
2016-04-08T04:32:00.032Z,75.34
2016-04-08T04:33:00.035Z,74.9
2016-04-08T04:34:00.021Z,75.85
2016-04-08T04:35:00.024Z,75.85
2016-04-08T04:36:00.027Z,74.81
2016-04-08T04:37:00.029Z,75
2016-04-08T04:38:00.032Z,74.9
2016-04-08T04:39:00.019Z,74.81
2016-04-08T04:40:00.007Z,74.81
2016-04-08T04:40:59.994Z,75.09
2016-04-08T04:41:59.996Z,75.09
2016-04-08T04:42:59.999Z,74.81
2016-04-08T04:44:00.017Z,74.9
2016-04-08T04:45:00.004Z,75.19
2016-04-08T04:45:59.991Z,75.19
2016-04-08T04:46:59.978Z,74.71
2016-04-08T04:47:59.996Z,75.19
2016-04-08T04:48:59.983Z,75.28
2016-04-08T04:49:59.970Z,75.09
2016-04-08T04:51:00.020Z,75.09
2016-04-08T04:51:59.976Z,75.09
2016-04-08T04:52:59.963Z,75.28
2016-04-08T04:53:59.951Z,75.09
2016-04-08T04:54:59.953Z,75.76
2016-04-08T04:55:59.956Z,75.38
2016-04-08T04:56:59.959Z,75.85
2016-04-08T04:57:59.961Z,76.32
2016-04-08T04:58:59.933Z,76.32
2016-04-08T04:59:59.950Z,76.04
2016-04-08T05:00:59.922Z,75.57
2016-04-08T05:01:59.925Z,75
2016-04-08T05:02:59.927Z,75.19
2016-04-08T05:03:59.930Z,74.9
2016-04-08T05:04:59.932Z,75.09
2016-04-08T05:05:59.935Z,74.9
2016-04-08T05:06:59.922Z,75
2016-04-08T05:07:59.910Z,75.19
2016-04-08T05:08:59.913Z,74.9
2016-04-08T05:09:59.899Z,75.19
2016-04-08T05:10:59.918Z,75.09
2016-04-08T05:11:59.905Z,74.81
2016-04-08T05:12:59.907Z,74.62
2016-04-08T05:13:59.988Z,74.81
2016-04-08T05:14:59.913Z,74.71
2016-04-08T05:15:59.884Z,74.62
2016-04-08T05:16:59.872Z,74.15
2016-04-08T05:17:59.890Z,74.15
2016-04-08T05:18:59.893Z,73.76
2016-04-08T05:19:59.880Z,73.29
2016-04-08T05:20:59.882Z,73
2016-04-08T05:21:59.870Z,73.86
2016-04-08T05:22:59.856Z,74.15
2016-04-08T05:23:59.875Z,74.71
2016-04-08T05:24:59.878Z,74.62
2016-04-08T05:25:59.864Z,74.81
2016-04-08T05:26:59.867Z,74.43
2016-04-08T05:27:59.869Z,73.96
2016-04-08T05:28:59.888Z,73.86
2016-04-08T05:29:59.859Z,74.24
2016-04-08T05:30:59.862Z,73
2016-04-08T05:31:59.834Z,72.75
2016-04-08T05:32:59.852Z,72.85
2016-04-08T05:33:59.824Z,72.56
2016-04-08T05:34:59.842Z,72.38
2016-04-08T05:35:59.845Z,72
2016-04-08T05:36:59.832Z,71.62
2016-04-08T05:37:59.835Z,71.52
2016-04-08T05:38:59.821Z,71.52
2016-04-08T05:39:59.824Z,71.71
2016-04-08T05:40:59.843Z,71.23
2016-04-08T05:41:59.829Z,71.23
2016-04-08T05:42:59.832Z,71.04
2016-04-08T05:44:00.084Z,70.95
2016-04-08T05:44:59.821Z,70.95
2016-04-08T05:45:59.809Z,70.57
2016-04-08T05:46:59.826Z,70.57
2016-04-08T05:47:59.815Z,70.48
2016-04-08T05:48:59.785Z,70.19
2016-04-08T05:49:59.820Z,70.23
2016-04-08T05:50:59.823Z,69.37
2016-04-08T05:51:59.793Z,68.9
2016-04-08T05:52:59.843Z,69.27
2016-04-08T05:53:59.798Z,68.33
2016-04-08T05:54:59.786Z,68.71
2016-04-08T05:55:59.804Z,68.71
2016-04-08T05:56:59.806Z,67.85
2016-04-08T05:57:59.778Z,67.28
2016-04-08T05:58:59.781Z,67.28
2016-04-08T05:59:59.769Z,68.04
2016-04-08T06:00:59.787Z,67.38
2016-04-08T06:01:59.774Z,67.66
2016-04-08T06:02:59.761Z,67.47
2016-04-08T06:03:59.748Z,67.57
2016-04-08T06:04:59.766Z,67.38
2016-04-08T06:05:59.769Z,66.71
2016-04-08T06:06:59.756Z,66.14
2016-04-08T06:07:59.774Z,66.24
2016-04-08T06:08:59.777Z,65.89
2016-04-08T06:09:59.748Z,65.47
2016-04-08T06:10:59.735Z,65.67
2016-04-08T06:11:59.738Z,65.47
2016-04-08T06:12:59.757Z,65.09
2016-04-08T06:13:59.821Z,65.28
2016-04-08T06:14:59.778Z,64.9
2016-04-08T06:15:59.749Z,64.53
2016-04-08T06:17:02.752Z,64.62
2016-04-08T06:17:59.738Z,64.72
2016-04-08T06:18:59.757Z,64.65
2016-04-08T06:19:59.729Z,64.37
2016-04-08T06:20:59.715Z,64.37
2016-04-08T06:21:59.765Z,63.89
2016-04-08T06:22:59.737Z,63.6
2016-04-08T06:23:59.723Z,63.13
2016-04-08T06:24:59.742Z,63.13
2016-04-08T06:25:59.713Z,62.46
2016-04-08T06:26:59.700Z,62.65
2016-04-08T06:27:59.719Z,62.85
2016-04-08T06:28:59.564Z,61.61
2016-04-08T06:29:59.708Z,60.75
2016-04-08T06:30:59.711Z,60.57
2016-04-08T06:31:59.714Z,59.71
2016-04-08T06:32:59.717Z,59.52
2016-04-08T06:33:59.736Z,59.33
2016-04-08T06:34:59.706Z,59.99
2016-04-08T06:35:59.709Z,60.28
2016-04-08T06:36:59.728Z,59.9
2016-04-08T06:37:59.700Z,59.99
2016-04-08T06:38:59.717Z,59.9
2016-04-08T06:39:59.720Z,59.61
2016-04-08T06:40:59.708Z,59.61
2016-04-08T06:41:59.694Z,59.23
2016-04-08T06:42:59.697Z,59.42
2016-04-08T06:43:59.763Z,58.95
2016-04-08T06:44:59.702Z,59.42
2016-04-08T06:45:59.689Z,58.37
2016-04-08T06:46:59.708Z,58.47
2016-04-08T06:47:59.711Z,59.05
2016-04-08T06:48:59.697Z,58.57
2016-04-08T06:49:59.700Z,58.28
2016-04-08T06:50:59.687Z,57.52
2016-04-08T06:51:59.690Z,57.36
2016-04-08T06:52:59.692Z,56.41
2016-04-08T06:53:59.695Z,56.12
2016-04-08T06:54:59.682Z,55.55
2016-04-08T06:55:59.685Z,55.49
2016-04-08T06:56:59.687Z,55.1
2016-04-08T06:57:59.690Z,54.72
2016-04-08T06:58:59.787Z,53.96
2016-04-08T06:59:59.681Z,53.58
2016-04-08T07:00:59.672Z,53.67
2016-04-08T07:01:59.690Z,53.2
2016-04-08T07:02:59.692Z,52.53
2016-04-08T07:03:59.680Z,52.18
2016-04-08T07:04:59.682Z,51.8
2016-04-08T07:05:59.685Z,51.8
2016-04-08T07:06:59.688Z,51.99
2016-04-08T07:07:59.691Z,50.66
2016-04-08T07:08:59.678Z,49.92
2016-04-08T07:09:59.682Z,49.35
2016-04-08T07:10:59.700Z,48.71
2016-04-08T07:11:59.687Z,47.47
2016-04-08T07:12:59.720Z,47.39
2016-04-08T07:13:59.709Z,47.66
2016-04-08T07:14:59.711Z,48.42
2016-04-08T07:15:59.714Z,49.44
2016-04-08T07:16:59.763Z,49.82
2016-04-08T07:17:59.797Z,50.3
2016-04-08T07:18:59.706Z,50.78
2016-04-08T07:19:59.708Z,52.09
2016-04-08T07:20:59.727Z,52.37
2016-04-08T07:21:59.713Z,52.18
2016-04-08T07:22:59.717Z,52.63
2016-04-08T07:23:59.719Z,53.2
2016-04-08T07:24:59.722Z,53.67
2016-04-08T07:25:59.725Z,53.49
2016-04-08T07:26:59.727Z,53.77
2016-04-08T07:27:59.730Z,54.15
2016-04-08T07:28:59.717Z,53.67
2016-04-08T07:29:59.736Z,54.44
2016-04-08T07:30:59.723Z,53.11
2016-04-08T07:31:59.725Z,52.82
2016-04-08T07:32:59.728Z,53.01
2016-04-08T07:33:59.715Z,53.39
2016-04-08T07:34:59.718Z,53.39
2016-04-08T07:35:59.736Z,53.46
2016-04-08T07:36:59.723Z,54.03
2016-04-08T07:37:59.726Z,54.5
2016-04-08T07:38:59.729Z,54.41
2016-04-08T07:39:59.715Z,54.5
2016-04-08T07:40:59.734Z,54.22
2016-04-08T07:41:59.706Z,54.15
2016-04-08T07:42:59.724Z,53.96
2016-04-08T07:43:59.726Z,53.67
2016-04-08T07:44:59.713Z,53.49
2016-04-08T07:45:59.731Z,53.49
2016-04-08T07:46:59.734Z,53.67
2016-04-08T07:47:59.706Z,54.06
2016-04-08T07:48:59.725Z,53.58
2016-04-08T07:49:59.743Z,53.2
2016-04-08T07:50:59.730Z,52.82
2016-04-08T07:51:59.716Z,51.99
2016-04-08T07:52:59.751Z,51.99
2016-04-08T07:53:59.738Z,51.14
2016-04-08T07:54:59.741Z,51.04
2016-04-08T07:55:59.743Z,50.75
2016-04-08T07:56:59.714Z,50.27
2016-04-08T07:57:59.717Z,50.4
2016-04-08T07:58:59.719Z,50.46
2016-04-08T07:59:59.722Z,50.18
2016-04-08T08:00:59.710Z,50.27
2016-04-08T08:01:59.727Z,49.92
2016-04-08T08:02:59.715Z,50.01
2016-04-08T08:03:59.717Z,50.21
2016-04-08T08:05:00.158Z,50.68
2016-04-08T08:05:59.723Z,50.49
2016-04-08T08:06:59.726Z,50.37
2016-04-08T08:07:59.728Z,51.8
2016-04-08T08:08:59.731Z,51.32
2016-04-08T08:09:59.718Z,51.61
2016-04-08T08:10:59.720Z,51.89
2016-04-08T08:11:59.724Z,52.28
2016-04-08T08:12:59.726Z,51.51
2016-04-08T08:13:59.729Z,50.66
2016-04-08T08:14:59.731Z,50.18
2016-04-08T08:15:59.719Z,48.87
2016-04-08T08:16:59.737Z,48.23
2016-04-08T08:17:59.724Z,46.44
2016-04-08T08:18:59.727Z,44.08
2016-04-08T08:19:59.730Z,42
2016-04-08T08:20:59.733Z,39.64
2016-04-08T08:21:59.766Z,38.7
2016-04-08T08:22:59.753Z,38.79
2016-04-08T08:23:59.756Z,39.47
2016-04-08T08:24:59.758Z,39.18
2016-04-08T08:25:59.761Z,36.71
2016-04-08T08:26:59.764Z,35.96
2016-04-08T08:27:59.752Z,35.58
2016-04-08T08:28:59.769Z,35.68
2016-04-08T08:29:59.771Z,35.1
2016-04-08T08:30:59.775Z,34.43
2016-04-08T08:31:59.762Z,34.81
2016-04-08T08:32:59.780Z,35.58
2016-04-08T08:33:59.783Z,36.99
2016-04-08T08:34:59.785Z,39.06
2016-04-08T08:35:59.788Z,40.59
2016-04-08T08:36:59.791Z,43.15
2016-04-08T08:37:59.809Z,44.84
2016-04-08T08:38:59.812Z,45.97
2016-04-08T08:39:59.798Z,46.63
2016-04-08T08:40:59.801Z,46.42
2016-04-08T08:41:59.804Z,46.8
2016-04-08T08:42:59.822Z,46.42
2016-04-08T08:43:59.825Z,49.06
2016-04-08T08:44:59.843Z,48.78
2016-04-08T08:45:59.831Z,47.54
2016-04-08T08:47:00.286Z,48.11
2016-04-08T08:47:59.836Z,48.02
2016-04-08T08:48:59.870Z,48.37
2016-04-08T08:49:59.841Z,48.47
2016-04-08T08:50:59.078Z,48.56
2016-04-08T08:51:59.846Z,48.56
2016-04-08T08:52:59.850Z,48.27
2016-04-08T08:53:59.852Z,48.18
2016-04-08T08:54:59.855Z,48.56
2016-04-08T08:55:59.842Z,48.66
2016-04-08T08:56:59.860Z,48.66
2016-04-08T08:57:59.847Z,47.54
2016-04-08T08:58:59.850Z,47.42
2016-04-08T08:59:59.883Z,47.61
2016-04-08T09:00:59.855Z,48.47
2016-04-08T09:01:59.857Z,48.85
2016-04-08T09:02:59.877Z,48.75
2016-04-08T09:03:59.863Z,47.42
2016-04-08T09:04:59.866Z,48.85
2016-04-08T09:05:59.869Z,48.85
2016-04-08T09:06:59.871Z,48.47
2016-04-08T09:07:59.874Z,48.27
2016-04-08T09:08:59.861Z,48.56
2016-04-08T09:09:59.865Z,47.8
2016-04-08T09:10:59.867Z,47.61
2016-04-08T09:11:59.884Z,47.71
2016-04-08T09:12:59.856Z,47.71
2016-04-08T09:13:59.859Z,47.52
2016-04-08T09:14:59.878Z,47.42
2016-04-08T09:15:59.865Z,47.32
2016-04-08T09:16:59.867Z,47.34
2016-04-08T09:17:59.869Z,46.87
2016-04-08T09:18:59.872Z,46.49
2016-04-08T09:19:59.875Z,46.2
2016-04-08T09:20:59.862Z,46.3
2016-04-08T09:21:59.880Z,45.65
2016-04-08T09:23:00.180Z,45.65
2016-04-08T09:23:59.870Z,46.7
2016-04-08T09:24:59.872Z,47.85
2016-04-08T09:25:59.876Z,47.47
2016-04-08T09:26:59.894Z,46.23
2016-04-08T09:27:59.880Z,46.13
2016-04-08T09:28:59.884Z,45.65
2016-04-08T09:29:59.871Z,46.04
2016-04-08T09:30:59.889Z,45.92
2016-04-08T09:31:59.876Z,45.73
2016-04-08T09:32:59.879Z,45.56
2016-04-08T09:33:59.882Z,45.18
2016-04-08T09:34:59.885Z,45.94
2016-04-08T09:35:59.888Z,46.42
2016-04-08T09:36:59.890Z,47.63
2016-04-08T09:37:59.892Z,46.3
2016-04-08T09:38:59.879Z,48.3
2016-04-08T09:39:59.882Z,48.02
2016-04-08T09:40:59.884Z,48.68
2016-04-08T09:41:59.918Z,47.54
2016-04-08T09:42:59.890Z,47.44
2016-04-08T09:43:59.892Z,48.78
2016-04-08T09:44:59.895Z,47.44
2016-04-08T09:45:59.898Z,48.3
2016-04-08T09:46:59.885Z,47.92
2016-04-08T09:47:59.887Z,46.97
2016-04-08T09:48:59.890Z,46.39
2016-04-08T09:49:59.893Z,46.39
2016-04-08T09:50:59.895Z,47.37
2016-04-08T09:51:59.898Z,48.23
2016-04-08T09:52:59.886Z,47.85
2016-04-08T09:53:59.888Z,46.23
2016-04-08T09:54:59.892Z,46.8
2016-04-08T09:55:59.894Z,46.23
2016-04-08T09:56:59.896Z,45.84
2016-04-08T09:57:59.903Z,44.99
2016-04-08T09:58:59.906Z,44.42
2016-04-08T09:59:59.940Z,43.29
2016-04-08T10:00:59.896Z,43.2
2016-04-08T10:01:59.898Z,43.01
2016-04-08T10:02:59.917Z,43.29
2016-04-08T10:03:59.748Z,43.2
2016-04-08T10:04:59.906Z,42.24
2016-04-08T10:05:59.909Z,42.53
2016-04-08T10:06:59.895Z,41.58
2016-04-08T10:07:59.914Z,41.65
2016-04-08T10:08:59.901Z,41.75
2016-04-08T10:09:59.903Z,43.56
2016-04-08T10:10:59.907Z,43.56
2016-04-08T10:11:59.909Z,42.6
2016-04-08T10:12:59.927Z,42.7
2016-04-08T10:13:59.899Z,42.41
2016-04-08T10:14:59.886Z,43.18
2016-04-08T10:15:59.920Z,43.94
2016-04-08T10:16:59.922Z,43.08
2016-04-08T10:17:59.910Z,42.51
2016-04-08T10:18:59.913Z,42.99
2016-04-08T10:19:59.930Z,43.46
2016-04-08T10:20:59.919Z,41.96
2016-04-08T10:21:59.921Z,41.86
2016-04-08T10:22:59.923Z,41.39
2016-04-08T10:23:59.911Z,41.2
2016-04-08T10:24:59.929Z,41.1
2016-04-08T10:25:59.916Z,40.74
2016-04-08T10:26:59.918Z,40.64
2016-04-08T10:27:59.921Z,41.39
2016-04-08T10:28:59.924Z,41.86
2016-04-08T10:29:59.974Z,42.05
2016-04-08T10:30:59.929Z,45.39
2016-04-08T10:31:59.931Z,43.29
2016-04-08T10:32:59.934Z,43.01
2016-04-08T10:33:59.937Z,42.53
2016-04-08T10:34:59.925Z,41.96
2016-04-08T10:35:59.942Z,41.03
2016-04-08T10:36:59.930Z,41.6
2016-04-08T10:37:59.948Z,41.12
2016-04-08T10:38:59.936Z,40.83
2016-04-08T10:39:59.938Z,41.22
2016-04-08T10:40:59.941Z,41.67
2016-04-08T10:41:59.943Z,41.1
2016-04-08T10:42:59.947Z,41.1
2016-04-08T10:43:59.933Z,41.58
2016-04-08T10:45:00.014Z,41.77
2016-04-08T10:45:59.938Z,41.77
2016-04-08T10:46:59.957Z,41.2
2016-04-08T10:47:59.944Z,40.91
2016-04-08T10:48:59.947Z,40.53
2016-04-08T10:49:59.949Z,40.24
2016-04-08T10:51:00.029Z,39.95
2016-04-08T10:52:00.017Z,40.34
2016-04-08T10:52:59.957Z,40.44
2016-04-08T10:53:59.960Z,40.81
2016-04-08T10:54:59.946Z,40.15
2016-04-08T10:55:59.949Z,40.34
2016-04-08T10:56:59.968Z,40.15
2016-04-08T10:57:59.955Z,40.24
2016-04-08T10:58:59.974Z,39.95
2016-04-08T11:00:00.023Z,40.05
2016-04-08T11:00:59.959Z,39.58
2016-04-08T11:01:59.979Z,39.5
2016-04-08T11:02:59.965Z,38.64
2016-04-08T11:03:59.967Z,38.35
2016-04-08T11:04:59.987Z,38.24
2016-04-08T11:05:59.989Z,38.45
2016-04-08T11:06:59.976Z,38.17
2016-04-08T11:07:59.978Z,38.07
2016-04-08T11:08:59.966Z,37.68
2016-04-08T11:09:59.984Z,36.66
2016-04-08T11:10:59.987Z,36.75
2016-04-08T11:11:59.989Z,35.89
2016-04-08T11:12:59.977Z,36.27
2016-04-08T11:13:59.994Z,35.89
2016-04-08T11:15:00.044Z,36.18
2016-04-08T11:16:00.000Z,36.18
2016-04-08T11:17:00.003Z,36.54
2016-04-08T11:17:59.991Z,36.54
2016-04-08T11:18:59.993Z,36.25
2016-04-08T11:19:59.996Z,36.25
2016-04-08T11:20:59.999Z,35.78
2016-04-08T11:22:00.001Z,35.59
2016-04-08T11:23:00.003Z,34.73
2016-04-08T11:23:59.991Z,34.82
2016-04-08T11:25:00.009Z,34.16
2016-04-08T11:26:00.011Z,34.08
2016-04-08T11:27:00.029Z,33.6
2016-04-08T11:28:00.017Z,33.98
2016-04-08T11:29:00.004Z,33.03
2016-04-08T11:30:00.007Z,32.73
2016-04-08T11:31:00.025Z,32.74
2016-04-08T11:32:00.012Z,32.73
2016-04-08T11:33:00.014Z,32.84
2016-04-08T11:34:00.018Z,32.65
2016-04-08T11:35:00.020Z,32.45
2016-04-08T11:36:00.054Z,32.93
2016-04-08T11:37:00.057Z,32.45
2016-04-08T11:38:00.028Z,32.84
2016-04-08T11:39:00.047Z,33.03
2016-04-08T11:40:00.034Z,33.7
2016-04-08T11:41:00.021Z,33.6
2016-04-08T11:42:00.086Z,34.19
2016-04-08T11:43:00.042Z,33.71
2016-04-08T11:44:00.044Z,32.66
2016-04-08T11:45:00.140Z,32.66
2016-04-08T11:46:00.049Z,34.67
2016-04-08T11:47:00.053Z,34.86
2016-04-08T11:48:00.071Z,34.86
2016-04-08T11:49:00.043Z,34.57
2016-04-08T11:50:00.060Z,34.57
2016-04-08T11:51:00.063Z,32.47
2016-04-08T11:52:00.066Z,31.61
2016-04-08T11:53:00.100Z,33.91
2016-04-08T11:54:00.071Z,34
2016-04-08T11:55:00.073Z,34.09
2016-04-08T11:56:00.093Z,33.04
2016-04-08T11:57:00.095Z,32.78
2016-04-08T11:58:00.082Z,32.68
2016-04-08T11:58:59.929Z,31.53
2016-04-08T12:00:00.103Z,30.77
2016-04-08T12:01:00.106Z,30.48
2016-04-08T12:02:00.109Z,30.3
2016-04-08T12:03:00.111Z,30.49
2016-04-08T12:04:00.114Z,29.63
2016-04-08T12:05:00.116Z,29.35
2016-04-08T12:06:00.120Z,29.33
2016-04-08T12:07:00.106Z,29.72
2016-04-08T12:08:00.109Z,30.1
2016-04-08T12:09:00.134Z,30.77
2016-04-08T12:10:00.136Z,31.15
2016-04-08T12:11:00.123Z,31.34
2016-04-08T12:12:00.126Z,31.53
2016-04-08T12:13:00.128Z,31.51
2016-04-08T12:14:00.131Z,31.51
2016-04-08T12:15:00.150Z,32.09
2016-04-08T12:16:00.136Z,31.8
2016-04-08T12:17:00.170Z,31.13
2016-04-08T12:18:00.142Z,31.04
2016-04-08T12:19:00.144Z,32.47
2016-04-08T12:20:00.163Z,32.57
2016-04-08T12:21:00.133Z,32.66
2016-04-08T12:22:00.152Z,32.74
2016-04-08T12:23:00.139Z,32.84
2016-04-08T12:24:00.157Z,33.22
2016-04-08T12:25:00.144Z,33.5
2016-04-08T12:26:00.179Z,33.98
2016-04-08T12:27:00.134Z,35.7
2016-04-08T12:28:00.184Z,33.98
2016-04-08T12:29:00.171Z,34.55
2016-04-08T12:30:00.157Z,35.13
2016-04-08T12:31:00.160Z,35.7
2016-04-08T12:32:00.179Z,34.94
2016-04-08T12:33:00.166Z,36.68
2016-04-08T12:34:00.168Z,35.62
2016-04-08T12:35:00.187Z,31.99
2016-04-08T12:36:00.190Z,30.94
2016-04-08T12:37:00.192Z,31.51
2016-04-08T12:38:00.195Z,31.32
2016-04-08T12:39:00.167Z,31.71
2016-04-08T12:40:00.184Z,30.94
2016-04-08T12:41:00.228Z,30.94
2016-04-08T12:42:00.271Z,31.71
2016-04-08T12:43:00.315Z,32.76
2016-04-08T12:44:00.374Z,33.71
2016-04-08T12:45:00.417Z,33.14
2016-04-08T12:46:00.435Z,32.66
2016-04-08T12:47:00.452Z,30.94
2016-04-08T12:48:00.469Z,30.56
2016-04-08T12:49:00.486Z,29.52
2016-04-08T12:50:00.488Z,29.8
2016-04-08T12:51:00.496Z,29.7
2016-04-08T12:52:00.504Z,29.89
2016-04-08T12:53:00.528Z,29.99
2016-04-08T12:54:00.536Z,30.56
2016-04-08T12:55:00.528Z,30.18
2016-04-08T12:56:00.549Z,30.37